Time;durP1;ratioP1;P1;durP2;ratioP2;P2;SDS_P1;SDS_P2;PMS_P1;PMS_P2;Temp;Humidity;BMP_temperature;BMP_pressure;BME280_temperature;BME280_humidity;BME280_pressure;Samples;Min_cycle;Max_cycle;Signal;HPM_P1;HPM_P2
2023/01/29 00:02:03;;;;;;;14.37;7.87;;;;;;;-0.02;100.00;94516.13;5050491;28;20188;-55
2023/01/29 00:04:29;;;;;;;12.97;6.87;;;;;;;-0.19;100.00;94501.94;5050308;28;20232;-53
2023/01/29 00:06:54;;;;;;;11.87;7.33;;;;;;;-0.16;100.00;94526.78;5050433;28;20181;-54
2023/01/29 00:09:20;;;;;;;11.00;6.13;;;;;;;-0.28;100.00;94524.81;5050923;28;20228;-54
2023/01/29 00:11:46;;;;;;;13.17;7.50;;;;;;;-0.21;100.00;94528.69;5050673;28;20570;-57
2023/01/29 00:14:12;;;;;;;10.47;6.00;;;;;;;-0.24;100.00;94537.97;5050565;28;20709;-54
2023/01/29 00:16:37;;;;;;;13.30;7.37;;;;;;;-0.17;100.00;94532.66;5050294;28;20200;-53
2023/01/29 00:19:03;;;;;;;12.00;7.13;;;;;;;-0.12;100.00;94545.72;5050069;28;20226;-55
2023/01/29 00:21:29;;;;;;;12.03;6.43;;;;;;;-0.03;100.00;94535.34;5048958;28;20192;-53
2023/01/29 00:23:55;;;;;;;11.83;7.33;;;;;;;0.20;100.00;94550.94;5050451;28;20282;-54
2023/01/29 00:26:21;;;;;;;12.23;6.97;;;;;;;0.12;100.00;94558.81;5050470;28;20182;-55
2023/01/29 00:28:47;;;;;;;12.97;7.07;;;;;;;0.19;100.00;94537.63;5050816;28;20209;-56
2023/01/29 00:31:16;;;;;;;12.70;7.57;;;;;;;0.18;100.00;94560.22;5050508;28;20661;-53
2023/01/29 00:33:42;;;;;;;11.40;7.07;;;;;;;0.21;100.00;94565.03;5049945;28;20225;-53
2023/01/29 00:36:11;;;;;;;12.83;8.37;;;;;;;0.09;100.00;94555.63;5050103;28;20186;-55
2023/01/29 00:38:37;;;;;;;12.80;7.27;;;;;;;0.05;100.00;94557.47;5050326;28;20221;-56
2023/01/29 00:46:34;;;;;;;12.43;7.37;;;;;;;0.14;100.00;94549.56;5053440;28;20329;-53
2023/01/29 00:49:00;;;;;;;13.63;6.70;;;;;;;0.20;100.00;94558.44;5053175;28;20221;-53
2023/01/29 00:51:25;;;;;;;11.60;7.93;;;;;;;0.25;100.00;94556.53;5053438;28;20327;-53
2023/01/29 00:53:51;;;;;;;11.63;7.50;;;;;;;0.02;100.00;94556.81;5053532;28;20233;-55
2023/01/29 00:56:25;;;;;;;15.83;7.63;;;;;;;0.14;100.00;94541.25;5053517;28;20243;-56
2023/01/29 00:58:50;;;;;;;11.63;7.73;;;;;;;0.10;100.00;94552.25;5053483;28;20282;-56
2023/01/29 01:01:16;;;;;;;12.43;7.30;;;;;;;0.11;100.00;94526.38;5053404;28;20656;-56
2023/01/29 01:03:41;;;;;;;12.37;7.97;;;;;;;0.10;100.00;94538.09;5053299;28;20256;-57
2023/01/29 01:06:09;;;;;;;11.20;7.50;;;;;;;0.17;100.00;94536.91;5053327;28;20189;-55
2023/01/29 01:11:19;;;;;;;12.77;7.10;;;;;;;0.04;100.00;94552.53;5053488;28;20607;-54
2023/01/29 01:13:45;;;;;;;11.03;7.07;;;;;;;-0.20;100.00;94549.44;5053134;28;20667;-56
2023/01/29 01:16:12;;;;;;;11.37;6.70;;;;;;;-0.21;100.00;94545.34;5052988;28;20200;-54
2023/01/29 01:18:38;;;;;;;10.97;6.67;;;;;;;-0.20;100.00;94545.28;5051748;28;20301;-53
2023/01/29 01:21:04;;;;;;;9.87;6.37;;;;;;;-0.21;100.00;94540.34;5053130;28;20276;-56
2023/01/29 01:23:29;;;;;;;13.20;7.37;;;;;;;-0.05;100.00;94542.09;5053057;28;20204;-56
2023/01/29 01:25:55;;;;;;;11.13;6.93;;;;;;;-0.13;100.00;94536.63;5052801;28;20655;-57
2023/01/29 01:28:20;;;;;;;11.10;7.53;;;;;;;-0.20;100.00;94544.44;5052730;28;20216;-55
2023/01/29 01:30:45;;;;;;;10.83;6.67;;;;;;;-0.21;100.00;94532.84;5052737;28;20185;-55
2023/01/29 01:33:11;;;;;;;12.50;6.70;;;;;;;-0.34;100.00;94537.59;5052679;28;20201;-52
2023/01/29 01:35:38;;;;;;;10.80;6.57;;;;;;;-0.34;100.00;94535.09;5052640;28;20212;-54
2023/01/29 01:38:03;;;;;;;9.97;6.07;;;;;;;-0.38;100.00;94530.28;5052840;28;20226;-55
2023/01/29 01:40:29;;;;;;;10.23;6.33;;;;;;;-0.42;100.00;94539.63;5052757;28;20276;-57
2023/01/29 01:42:58;;;;;;;10.83;6.47;;;;;;;-0.42;100.00;94542.13;5052616;28;20259;-57
2023/01/29 01:45:33;;;;;;;11.67;6.83;;;;;;;-0.43;100.00;94520.53;5052558;28;20189;-55
2023/01/29 01:48:05;;;;;;;11.17;6.27;;;;;;;-0.31;100.00;94537.47;5052504;28;20208;-55
2023/01/29 01:50:42;;;;;;;11.77;6.27;;;;;;;-0.29;100.00;94542.38;5052261;28;20196;-53
2023/01/29 01:53:12;;;;;;;9.67;5.77;;;;;;;-0.37;100.00;94541.91;5052460;28;20236;-55
2023/01/29 01:55:44;;;;;;;9.13;5.40;;;;;;;-0.45;100.00;94552.25;5052305;28;20212;-55
2023/01/29 01:58:15;;;;;;;12.23;6.77;;;;;;;-0.36;100.00;94548.50;5052472;28;20236;-55
2023/01/29 02:00:41;;;;;;;11.10;7.07;;;;;;;-0.51;100.00;94539.22;5052227;28;20205;-56
2023/01/29 02:09:35;;;;;;;10.70;5.67;;;;;;;-0.47;100.00;94556.50;5052540;28;20278;-57
2023/01/29 02:12:11;;;;;;;11.30;6.57;;;;;;;-0.47;100.00;94556.50;5025370;28;20243;-55
2023/01/29 02:14:39;;;;;;;11.63;6.40;;;;;;;-0.48;100.00;94554.06;5050840;28;20231;-53
2023/01/29 02:17:13;;;;;;;9.73;5.57;;;;;;;-0.50;100.00;94558.31;5052040;28;20189;-53
2023/01/29 02:19:52;;;;;;;10.33;6.40;;;;;;;-0.63;100.00;94544.75;5051922;28;20660;-54
2023/01/29 02:22:27;;;;;;;8.60;4.87;;;;;;;-0.55;100.00;94563.50;5052042;28;20192;-54
2023/01/29 02:25:08;;;;;;;11.17;6.87;;;;;;;-0.53;100.00;94560.94;5052009;28;20258;-52
2023/01/29 02:27:58;;;;;;;12.27;6.90;;;;;;;-0.49;100.00;94563.25;5051934;28;20236;-54
2023/01/29 02:30:52;;;;;;;13.73;5.87;;;;;;;-0.52;100.00;94565.03;5050569;28;20200;-52
2023/01/29 02:33:36;;;;;;;10.03;5.90;;;;;;;-0.53;100.00;94570.94;5052347;28;20239;-56
2023/01/29 02:36:04;;;;;;;11.27;6.47;;;;;;;-0.50;100.00;94575.78;5051718;28;20228;-54
2023/01/29 02:38:42;;;;;;;9.50;6.03;;;;;;;-0.50;100.00;94575.78;5051597;28;20201;-56
2023/01/29 02:41:19;;;;;;;10.80;6.03;;;;;;;-0.46;100.00;94578.06;5051885;28;20200;-54
2023/01/29 02:43:57;;;;;;;10.33;6.57;;;;;;;-0.43;100.00;94579.63;5052142;28;20614;-54
2023/01/29 02:46:42;;;;;;;11.57;7.03;;;;;;;-0.54;100.00;94582.59;5051537;28;20285;-54
2023/01/29 02:49:30;;;;;;;11.07;6.10;;;;;;;-0.53;100.00;94585.91;5051993;28;20601;-55
2023/01/29 02:52:13;;;;;;;11.17;6.53;;;;;;;-0.45;100.00;94589.69;5051543;28;20239;-56
2023/01/29 02:55:05;;;;;;;10.67;6.53;;;;;;;-0.49;100.00;94588.22;5051783;28;20235;-54
2023/01/29 02:57:35;;;;;;;9.10;6.33;;;;;;;-0.52;100.00;94573.34;5051263;28;20275;-55
2023/01/29 03:00:10;;;;;;;10.37;6.43;;;;;;;-0.53;100.00;94585.91;5051514;28;20248;-53
2023/01/29 03:02:44;;;;;;;10.63;6.70;;;;;;;-0.56;100.00;94564.38;5049503;28;20220;-53
2023/01/29 03:05:17;;;;;;;10.43;6.70;;;;;;;-0.47;100.00;94585.63;5051524;28;20180;-56
2023/01/29 03:07:50;;;;;;;12.33;6.93;;;;;;;-0.48;100.00;94574.84;5051254;28;20231;-56
2023/01/29 03:10:32;;;;;;;11.07;6.80;;;;;;;-0.39;100.00;94581.94;5051243;28;20212;-54
2023/01/29 03:13:06;;;;;;;9.80;6.13;;;;;;;-0.46;100.00;94590.56;5051456;28;20235;-55
2023/01/29 03:15:41;;;;;;;10.60;6.50;;;;;;;-0.48;100.00;94567.34;5051316;28;20223;-56
2023/01/29 03:18:26;;;;;;;9.73;5.97;;;;;;;-0.48;100.00;94586.50;5051016;28;20220;-56
2023/01/29 03:20:58;;;;;;;10.77;6.00;;;;;;;-0.38;100.00;94583.53;5051293;28;20314;-56
2023/01/29 03:32:06;;;;;;;9.23;5.53;;;;;;;-0.38;100.00;94591.03;5051268;28;20181;-54
2023/01/29 03:34:50;;;;;;;7.97;5.30;;;;;;;-0.37;100.00;94596.84;5050752;28;20220;-55
2023/01/29 03:37:28;;;;;;;9.07;5.50;;;;;;;-0.29;100.00;94600.63;5050789;28;20189;-55
2023/01/29 03:39:54;;;;;;;6.83;4.17;;;;;;;-0.37;100.00;94581.88;5050893;28;20631;-55
2023/01/29 03:42:36;;;;;;;8.93;4.73;;;;;;;-0.35;100.00;94595.91;5050628;28;20228;-56
2023/01/29 03:45:10;;;;;;;8.20;5.03;;;;;;;-0.22;100.00;94596.16;5050957;28;20198;-55
2023/01/29 03:50:55;;;;;;;6.93;4.80;;;;;;;-0.24;100.00;94593.72;5050979;28;20288;-56
2023/01/29 03:53:55;;;;;;;6.53;4.50;;;;;;;-0.31;100.00;94587.41;5041347;28;20228;-53
2023/01/29 03:56:40;;;;;;;7.73;5.00;;;;;;;-0.29;100.00;94589.81;5050535;28;20191;-56
2023/01/29 03:59:32;;;;;;;7.67;4.63;;;;;;;-0.38;100.00;94590.22;5050965;28;20232;-53
2023/01/29 04:02:02;;;;;;;7.03;4.23;;;;;;;-0.44;100.00;94598.78;5050823;28;20229;-53
2023/01/29 04:04:33;;;;;;;8.70;5.57;;;;;;;-0.52;100.00;94578.34;5050370;28;20216;-55
2023/01/29 04:07:12;;;;;;;6.43;4.70;;;;;;;-0.51;100.00;94594.13;5050654;28;20189;-57
2023/01/29 04:09:42;;;;;;;8.07;4.47;;;;;;;-0.39;100.00;94593.59;5050618;28;20283;-60
2023/01/29 04:12:09;;;;;;;6.87;5.00;;;;;;;-0.45;100.00;94593.88;5050271;28;20589;-56
2023/01/29 04:14:36;;;;;;;7.40;4.70;;;;;;;-0.41;100.00;94597.84;5050884;28;20209;-53
2023/01/29 04:17:14;;;;;;;9.20;4.73;;;;;;;-0.37;100.00;94602.66;5053868;28;20275;-54
2023/01/29 04:19:40;;;;;;;8.47;5.47;;;;;;;-0.46;100.00;94605.53;5053819;28;20689;-52
2023/01/29 04:22:25;;;;;;;9.83;5.63;;;;;;;-0.47;100.00;94598.94;5053828;28;20192;-54
2023/01/29 04:24:51;;;;;;;7.00;4.90;;;;;;;-0.46;100.00;94603.03;5053627;28;20243;-52
2023/01/29 04:27:35;;;;;;;9.07;5.13;;;;;;;-0.37;100.00;94605.16;5053589;28;20615;-56
2023/01/29 04:30:17;;;;;;;6.83;5.17;;;;;;;-0.38;100.00;94607.69;5053828;28;20687;-54
2023/01/29 04:33:14;;;;;;;7.03;4.27;;;;;;;-0.46;100.00;94602.22;5053609;28;20636;-55
2023/01/29 04:35:39;;;;;;;6.43;4.17;;;;;;;-0.56;100.00;94611.78;5053512;28;20215;-53
2023/01/29 04:38:20;;;;;;;6.03;3.93;;;;;;;-0.52;100.00;94602.47;5053699;28;20233;-55
2023/01/29 04:41:11;;;;;;;5.40;4.00;;;;;;;-0.54;100.00;94602.56;5053661;28;20210;-55
2023/01/29 04:43:51;;;;;;;6.97;4.33;;;;;;;-0.46;100.00;94608.03;5053857;28;20275;-53
2023/01/29 04:46:45;;;;;;;6.13;4.17;;;;;;;-0.50;100.00;94610.72;5053585;28;20185;-53
2023/01/29 04:49:23;;;;;;;6.60;4.40;;;;;;;-0.53;100.00;94609.19;5053308;28;20217;-55
2023/01/29 04:52:07;;;;;;;6.97;4.23;;;;;;;-0.45;100.00;94609.66;5053339;28;20276;-55
2023/01/29 04:55:07;;;;;;;8.57;4.77;;;;;;;-0.51;100.00;94609.94;5051898;28;20224;-53
2023/01/29 04:57:46;;;;;;;7.20;4.23;;;;;;;-0.54;100.00;94614.22;5053461;28;20216;-54
2023/01/29 05:00:18;;;;;;;7.20;4.40;;;;;;;-0.43;100.00;94607.09;5053025;28;20192;-53
2023/01/29 05:02:44;;;;;;;6.60;4.37;;;;;;;-0.43;100.00;94612.91;5053206;28;20235;-54
2023/01/29 05:05:13;;;;;;;5.97;4.33;;;;;;;-0.47;100.00;94626.41;5051907;28;20219;-55
2023/01/29 05:07:41;;;;;;;7.53;4.43;;;;;;;-0.39;100.00;94616.06;5053099;28;20236;-55
2023/01/29 05:10:09;;;;;;;6.23;4.30;;;;;;;-0.42;100.00;94623.69;5053153;28;20189;-56
2023/01/29 05:12:37;;;;;;;7.83;4.90;;;;;;;-0.55;100.00;94600.94;5053166;28;20265;-55
2023/01/29 05:15:07;;;;;;;7.13;4.77;;;;;;;-0.43;100.00;94624.56;5052836;28;20244;-56
2023/01/29 05:17:34;;;;;;;5.83;4.10;;;;;;;-0.49;100.00;94628.16;5052850;28;20263;-54
2023/01/29 05:19:59;;;;;;;5.10;3.87;;;;;;;-0.53;100.00;94626.66;5035143;28;20212;-53
2023/01/29 05:22:25;;;;;;;6.13;4.23;;;;;;;-0.39;100.00;94624.38;5052996;28;20183;-52
2023/01/29 05:24:51;;;;;;;7.63;4.20;;;;;;;-0.45;100.00;94632.13;5052888;28;20263;-54
2023/01/29 05:30:07;;;;;;;8.00;4.97;;;;;;;-0.53;100.00;94619.16;5053113;28;20261;-55
2023/01/29 05:32:33;;;;;;;5.43;4.33;;;;;;;-0.41;100.00;94643.59;5052814;28;20233;-57
2023/01/29 05:34:58;;;;;;;6.20;4.07;;;;;;;-0.39;100.00;94639.34;5052647;28;20300;-55
2023/01/29 05:37:24;;;;;;;6.70;4.47;;;;;;;-0.46;100.00;94637.16;5052665;28;20550;-55
2023/01/29 05:39:49;;;;;;;6.87;4.67;;;;;;;-0.48;100.00;94634.75;5052672;28;20215;-57
2023/01/29 05:42:15;;;;;;;7.47;4.97;;;;;;;-0.33;100.00;94639.09;5052696;28;20193;-56
2023/01/29 05:44:40;;;;;;;5.67;3.90;;;;;;;-0.31;100.00;94644.84;5052792;28;20576;-53
2023/01/29 05:47:06;;;;;;;7.23;4.53;;;;;;;-0.35;100.00;94638.34;5052531;28;20633;-53
2023/01/29 05:49:32;;;;;;;6.00;3.87;;;;;;;-0.30;100.00;94638.13;5052480;28;20215;-54
2023/01/29 05:52:03;;;;;;;8.40;4.50;;;;;;;-0.20;100.00;94645.16;5052423;28;20185;-54
2023/01/29 05:54:29;;;;;;;7.67;4.43;;;;;;;-0.31;100.00;94652.31;5052476;28;20278;-53
2023/01/29 05:56:54;;;;;;;8.83;4.93;;;;;;;-0.33;100.00;94649.09;5052585;28;20185;-55
2023/01/29 05:59:20;;;;;;;6.47;4.63;;;;;;;-0.38;100.00;94643.47;5052389;28;20323;-53
2023/01/29 06:01:45;;;;;;;6.90;5.03;;;;;;;-0.54;100.00;94649.97;5052280;28;20201;-53
2023/01/29 06:04:11;;;;;;;7.37;4.90;;;;;;;-0.58;100.00;94655.16;5052224;28;20679;-54
2023/01/29 06:06:37;;;;;;;6.03;4.47;;;;;;;-0.52;100.00;94658.22;5052186;28;20185;-56
2023/01/29 06:09:03;;;;;;;6.70;4.50;;;;;;;-0.43;100.00;94664.50;5052581;28;20220;-56
2023/01/29 06:11:28;;;;;;;5.60;4.47;;;;;;;-0.44;100.00;94663.69;5050908;28;20196;-54
2023/01/29 06:13:54;;;;;;;6.87;4.57;;;;;;;-0.40;100.00;94672.66;5051823;28;20325;-56
2023/01/29 06:16:19;;;;;;;10.57;6.17;;;;;;;-0.41;100.00;94681.06;5052051;28;20687;-57
2023/01/29 06:18:44;;;;;;;9.23;5.43;;;;;;;-0.39;100.00;94661.81;5052301;28;20692;-57
2023/01/29 06:21:12;;;;;;;11.27;6.83;;;;;;;-0.25;100.00;94676.22;5051985;28;20193;-56
2023/01/29 06:23:38;;;;;;;9.30;5.27;;;;;;;-0.29;100.00;94660.56;5050383;28;20314;-56
2023/01/29 06:26:14;;;;;;;8.60;5.50;;;;;;;-0.26;100.00;94685.38;5052084;28;20201;-57
2023/01/29 06:28:40;;;;;;;9.00;5.40;;;;;;;-0.19;100.00;94690.94;5052315;28;20682;-55
2023/01/29 06:31:07;;;;;;;7.83;5.50;;;;;;;-0.39;100.00;94678.50;5051858;28;20322;-55
2023/01/29 06:33:33;;;;;;;8.37;5.50;;;;;;;-0.36;100.00;94691.63;5051848;28;20354;-54
2023/01/29 06:36:00;;;;;;;9.13;6.10;;;;;;;-0.23;100.00;94695.25;5051619;28;20189;-54
2023/01/29 06:38:26;;;;;;;7.77;5.27;;;;;;;-0.15;100.00;94695.75;5050615;28;20227;-54
2023/01/29 06:40:52;;;;;;;6.37;4.73;;;;;;;-0.37;100.00;94684.22;5051717;28;20577;-54
2023/01/29 06:43:19;;;;;;;7.20;5.30;;;;;;;-0.30;100.00;94703.88;5051947;28;20215;-53
2023/01/29 06:45:49;;;;;;;7.77;5.67;;;;;;;-0.14;100.00;94709.84;5051606;28;20220;-54
2023/01/29 06:48:14;;;;;;;7.33;5.57;;;;;;;-0.15;100.00;94712.41;5051511;28;20249;-54
2023/01/29 06:50:40;;;;;;;8.87;5.17;;;;;;;-0.17;100.00;94714.16;5051590;28;20686;-54
2023/01/29 06:53:05;;;;;;;10.67;5.50;;;;;;;-0.31;100.00;94702.25;5051727;28;20220;-53
2023/01/29 06:55:31;;;;;;;10.30;6.40;;;;;;;-0.20;100.00;94720.09;5051539;28;20213;-53
2023/01/29 06:57:56;;;;;;;10.00;6.40;;;;;;;-0.26;100.00;94700.38;5051513;28;20217;-57
2023/01/29 07:00:22;;;;;;;11.63;6.30;;;;;;;-0.11;100.00;94717.22;5066978;28;20291;-55
2023/01/29 07:02:50;;;;;;;9.20;5.80;;;;;;;-0.20;100.00;94720.09;5051477;28;20724;-54
2023/01/29 07:05:16;;;;;;;10.67;6.43;;;;;;;-0.22;100.00;94703.53;5050144;28;20221;-56
2023/01/29 07:07:41;;;;;;;9.93;6.67;;;;;;;-0.17;100.00;94719.97;5049893;28;20709;-55
2023/01/29 07:10:07;;;;;;;12.00;6.60;;;;;;;-0.20;100.00;94731.75;5051439;28;20627;-54
2023/01/29 07:12:33;;;;;;;10.50;6.43;;;;;;;-0.12;100.00;94724.75;5051924;28;20217;-55
2023/01/29 07:14:58;;;;;;;11.43;7.23;;;;;;;-0.26;100.00;94709.53;5051162;28;20232;-54
2023/01/29 07:17:24;;;;;;;9.83;6.67;;;;;;;-0.02;100.00;94724.28;5051151;28;20273;-56
2023/01/29 07:19:49;;;;;;;12.87;7.17;;;;;;;0.04;100.00;94730.75;5051266;28;20251;-57
2023/01/29 07:22:15;;;;;;;9.80;6.03;;;;;;;-0.15;100.00;94705.72;5051194;28;20294;-56
2023/01/29 07:24:41;;;;;;;8.83;5.90;;;;;;;-0.12;100.00;94730.56;5051170;28;20197;-55
2023/01/29 07:27:06;;;;;;;10.77;6.50;;;;;;;-0.12;100.00;94733.06;5051255;28;20590;-55
2023/01/29 07:29:32;;;;;;;7.60;5.43;;;;;;;-0.18;100.00;94737.50;5050918;28;20239;-52
2023/01/29 07:31:58;;;;;;;8.57;6.13;;;;;;;-0.02;100.00;94725.97;5051178;28;20184;-56
2023/01/29 07:34:23;;;;;;;9.40;6.03;;;;;;;-0.14;100.00;94738.97;5050650;28;20223;-56
2023/01/29 07:36:52;;;;;;;11.50;7.13;;;;;;;0.01;100.00;94740.84;5051086;28;20574;-56
2023/01/29 07:39:18;;;;;;;11.10;7.73;;;;;;;0.05;100.00;94744.84;5051274;28;20304;-54
2023/01/29 07:41:43;;;;;;;13.93;7.20;;;;;;;0.00;100.00;94739.25;5050831;28;20189;-54
2023/01/29 07:44:08;;;;;;;10.83;7.07;;;;;;;0.21;100.00;94740.81;5049596;28;20312;-54
2023/01/29 07:46:34;;;;;;;15.83;8.90;;;;;;;0.06;100.00;94745.66;5050768;28;20189;-54
2023/01/29 07:48:59;;;;;;;11.17;7.53;;;;;;;0.04;100.00;94739.91;5052145;28;20213;-57
2023/01/29 07:51:25;;;;;;;9.53;6.83;;;;;;;-0.03;100.00;94746.84;5054373;28;20188;-55
2023/01/29 07:53:50;;;;;;;12.17;6.90;;;;;;;0.08;100.00;94749.72;5054187;28;20271;-55
2023/01/29 07:56:15;;;;;;;12.57;7.73;;;;;;;-0.05;100.00;94751.09;5054413;28;20203;-55
2023/01/29 07:58:41;;;;;;;10.70;7.53;;;;;;;-0.05;100.00;94734.44;5054449;28;20255;-54
2023/01/29 08:01:06;;;;;;;12.07;7.37;;;;;;;-0.04;100.00;94748.53;5054327;28;20185;-54
2023/01/29 08:03:32;;;;;;;12.90;7.70;;;;;;;-0.31;100.00;94749.69;5054395;28;20205;-56
2023/01/29 08:05:57;;;;;;;16.03;8.40;;;;;;;-0.04;100.00;94757.69;5053721;28;20546;-54
2023/01/29 08:08:24;;;;;;;12.10;8.07;;;;;;;0.12;100.00;94756.22;5054354;28;20212;-56
2023/01/29 08:10:50;;;;;;;10.77;7.80;;;;;;;0.19;100.00;94751.72;5054032;28;20196;-53
2023/01/29 08:13:15;;;;;;;12.97;7.87;;;;;;;0.22;100.00;94757.44;5054102;28;20220;-53
2023/01/29 08:15:44;;;;;;;9.53;7.03;;;;;;;0.25;100.00;94756.47;5054174;28;20588;-55
2023/01/29 08:18:11;;;;;;;17.40;8.17;;;;;;;0.14;100.00;94759.44;5053854;28;20299;-54
2023/01/29 08:20:37;;;;;;;12.17;8.10;;;;;;;0.14;100.00;94764.44;5053809;28;20239;-56
2023/01/29 08:23:05;;;;;;;12.73;7.37;;;;;;;0.22;100.00;94766.59;5053793;28;20243;-55
2023/01/29 08:25:31;;;;;;;10.43;6.73;;;;;;;0.18;100.00;94770.13;5052562;28;20189;-55
2023/01/29 08:27:58;;;;;;;15.73;8.47;;;;;;;0.12;100.00;94767.88;5053727;28;20215;-57
2023/01/29 08:30:31;;;;;;;9.87;6.60;;;;;;;0.19;100.00;94766.72;5053762;28;20185;-57
2023/01/29 08:32:57;;;;;;;14.57;7.90;;;;;;;0.17;100.00;94769.31;5053823;28;20227;-53
2023/01/29 08:35:22;;;;;;;9.57;6.60;;;;;;;0.10;100.00;94780.44;5053325;28;20289;-54
2023/01/29 08:38:02;;;;;;;11.57;7.30;;;;;;;0.14;100.00;94784.44;5053453;28;20206;-54
2023/01/29 08:40:33;;;;;;;10.87;7.37;;;;;;;0.28;100.00;94776.34;5053481;28;20200;-53
2023/01/29 08:43:04;;;;;;;12.53;6.70;;;;;;;0.27;100.00;94787.19;5053298;28;20217;-54
2023/01/29 08:45:33;;;;;;;11.27;6.93;;;;;;;0.30;100.00;94782.91;5053440;28;20197;-60
2023/01/29 08:47:58;;;;;;;14.40;7.73;;;;;;;0.34;100.00;94801.06;5053387;28;20258;-57
2023/01/29 08:50:24;;;;;;;13.93;7.70;;;;;;;0.17;100.00;94781.78;5053458;28;20194;-56
2023/01/29 08:52:50;;;;;;;11.37;7.40;;;;;;;0.14;100.00;94799.44;5053473;28;20578;-57
2023/01/29 08:55:15;;;;;;;11.57;7.47;;;;;;;0.19;100.00;94801.72;5053285;28;20291;-55
2023/01/29 08:57:41;;;;;;;11.00;7.70;;;;;;;0.18;100.00;94800.94;5053355;28;20644;-54
2023/01/29 09:00:08;;;;;;;12.70;7.30;;;;;;;0.11;100.00;94808.72;5051245;28;20243;-54
2023/01/29 09:02:33;;;;;;;13.10;8.20;;;;;;;-0.01;100.00;94803.38;5053080;28;20216;-54
2023/01/29 09:04:59;;;;;;;12.03;7.73;;;;;;;0.04;100.00;94814.88;5053326;28;20233;-54
2023/01/29 09:07:24;;;;;;;15.17;8.47;;;;;;;0.12;100.00;94805.38;5053152;28;20548;-54
2023/01/29 09:09:50;;;;;;;12.83;8.10;;;;;;;0.32;100.00;94822.81;5053313;28;20193;-57
2023/01/29 09:12:15;;;;;;;14.43;8.33;;;;;;;0.16;100.00;94801.84;5052948;28;20674;-56
2023/01/29 09:14:41;;;;;;;12.77;7.97;;;;;;;0.16;100.00;94816.84;5053027;28;20600;-54
2023/01/29 09:17:06;;;;;;;13.33;7.67;;;;;;;0.24;100.00;94819.84;5051751;28;20185;-53
2023/01/29 09:19:32;;;;;;;12.37;8.10;;;;;;;0.26;100.00;94811.41;5052832;28;20224;-54
2023/01/29 09:21:57;;;;;;;12.57;8.30;;;;;;;0.34;100.00;94806.88;5053121;28;20177;-55
2023/01/29 09:24:23;;;;;;;13.03;7.90;;;;;;;0.29;100.00;94823.75;5052792;28;20232;-55
2023/01/29 09:26:48;;;;;;;11.33;7.47;;;;;;;0.20;100.00;94815.84;5052819;28;20659;-55
2023/01/29 09:29:14;;;;;;;12.80;7.73;;;;;;;0.27;100.00;94808.00;5052588;28;20323;-58
2023/01/29 09:31:39;;;;;;;12.70;7.57;;;;;;;0.22;100.00;94804.09;5052883;28;20190;-56
2023/01/29 09:34:05;;;;;;;13.80;7.63;;;;;;;0.22;100.00;94806.59;5052963;28;20277;-57
2023/01/29 09:36:30;;;;;;;14.33;8.30;;;;;;;0.31;100.00;94799.50;5052750;28;20679;-54
2023/01/29 09:38:56;;;;;;;13.80;8.30;;;;;;;0.31;100.00;94806.19;5052927;28;20237;-54
2023/01/29 09:41:27;;;;;;;15.17;9.87;;;;;;;0.32;100.00;94815.31;5052914;28;20270;-56
2023/01/29 09:44:07;;;;;;;14.27;8.27;;;;;;;0.21;100.00;94789.97;5052815;28;20214;-56
2023/01/29 09:46:40;;;;;;;15.13;8.13;;;;;;;0.30;100.00;94802.09;5052930;28;20250;-55
2023/01/29 09:49:13;;;;;;;14.30;8.57;;;;;;;0.35;100.00;94816.00;5052472;28;20217;-59
2023/01/29 09:51:42;;;;;;;15.50;9.50;;;;;;;0.37;100.00;94796.75;5067983;28;20200;-57
2023/01/29 09:54:11;;;;;;;13.43;8.43;;;;;;;0.34;100.00;94796.06;5052658;28;20218;-56
2023/01/29 09:56:36;;;;;;;15.13;8.67;;;;;;;0.28;100.00;94771.34;5052357;28;20215;-56
2023/01/29 09:59:02;;;;;;;14.87;9.37;;;;;;;0.34;100.00;94786.06;5052684;28;20241;-54
2023/01/29 10:01:55;;;;;;;12.73;8.37;;;;;;;0.50;100.00;94787.03;5052429;28;20228;-55
2023/01/29 10:04:39;;;;;;;12.77;7.83;;;;;;;0.49;100.00;94805.41;5051025;28;20217;-54
2023/01/29 10:07:12;;;;;;;13.37;7.37;;;;;;;0.54;100.00;94796.03;5052396;28;20193;-54
2023/01/29 10:10:22;;;;;;;12.37;8.20;;;;;;;0.34;100.00;94781.06;5058311;22;20247;-54
2023/01/29 10:13:01;;;;;;;15.13;8.20;;;;;;;0.39;100.00;94776.66;5035985;28;20600;-57
2023/01/29 10:15:39;;;;;;;12.53;7.77;;;;;;;0.39;100.00;94774.16;5052204;28;20296;-57
2023/01/29 10:18:13;;;;;;;13.27;8.20;;;;;;;0.35;100.00;94772.69;5052278;28;20271;-57
2023/01/29 10:20:49;;;;;;;10.93;7.17;;;;;;;0.37;100.00;94783.44;5052055;28;20188;-57
2023/01/29 10:23:37;;;;;;;13.17;7.70;;;;;;;0.34;100.00;94766.06;5051939;28;20216;-56
2023/01/29 10:26:02;;;;;;;13.57;8.63;;;;;;;0.47;100.00;94767.16;5052076;28;20186;-58
2023/01/29 10:28:45;;;;;;;16.03;8.70;;;;;;;0.46;100.00;94775.53;5051942;28;20690;-57
2023/01/29 10:31:33;;;;;;;13.97;8.97;;;;;;;0.57;100.00;94778.38;5051905;28;20190;-57
2023/01/29 10:34:47;;;;;;;14.23;8.17;;;;;;;0.31;100.00;94768.69;5051700;28;20278;-53
2023/01/29 10:37:27;;;;;;;14.37;8.27;;;;;;;0.23;100.00;94751.53;5048531;28;20280;-57
2023/01/29 10:39:53;;;;;;;16.30;8.73;;;;;;;0.16;100.00;94732.72;5051812;28;20184;-55
2023/01/29 10:42:42;;;;;;;16.20;9.83;;;;;;;0.30;100.00;94755.41;5051747;28;20191;-58
2023/01/29 10:45:20;;;;;;;16.10;8.80;;;;;;;0.36;100.00;94745.13;5051642;28;20674;-57
2023/01/29 10:48:13;;;;;;;14.77;8.83;;;;;;;0.28;100.00;94746.34;5051620;28;20216;-56
2023/01/29 10:50:48;;;;;;;16.60;9.90;;;;;;;0.43;100.00;94733.16;5051792;28;20185;-54
2023/01/29 10:53:28;;;;;;;18.70;9.73;;;;;;;0.69;100.00;94755.31;5051684;28;20213;-55
2023/01/29 10:55:56;;;;;;;16.37;9.37;;;;;;;0.65;100.00;94761.31;5051432;28;20205;-54
2023/01/29 10:58:43;;;;;;;13.60;8.70;;;;;;;0.67;100.00;94754.56;5051323;28;20219;-53
2023/01/29 11:01:10;;;;;;;14.97;8.63;;;;;;;0.56;100.00;94752.56;5051464;28;20414;-54
2023/01/29 11:03:36;;;;;;;18.73;10.53;;;;;;;0.52;100.00;94747.75;5051236;28;20209;-53
2023/01/29 11:06:06;;;;;;;15.57;8.90;;;;;;;0.35;100.00;94745.19;5051321;28;20200;-58
2023/01/29 11:09:05;;;;;;;19.57;9.43;;;;;;;0.48;100.00;94743.78;5051547;28;20216;-55
2023/01/29 11:11:38;;;;;;;18.30;9.07;;;;;;;0.53;100.00;94736.88;5034894;28;20221;-55
2023/01/29 11:14:09;;;;;;;19.80;11.03;;;;;;;0.37;100.00;94738.44;5051597;28;20245;-56
2023/01/29 11:16:44;;;;;;;15.63;9.27;;;;;;;0.41;100.00;94728.25;5051445;28;20580;-59
2023/01/29 11:19:09;;;;;;;17.87;9.83;;;;;;;0.45;100.00;94733.91;5051213;28;20257;-57
2023/01/29 11:21:52;;;;;;;17.93;10.87;;;;;;;0.53;100.00;94735.19;5049747;28;20197;-56
2023/01/29 11:24:17;;;;;;;16.97;10.53;;;;;;;0.56;100.00;94741.75;5050898;28;20300;-56
2023/01/29 11:26:46;;;;;;;20.57;11.70;;;;;;;0.63;100.00;94743.09;5051104;28;20212;-57
2023/01/29 11:29:37;;;;;;;16.87;9.77;;;;;;;0.57;100.00;94736.66;5051369;28;20314;-57
2023/01/29 11:32:18;;;;;;;16.27;8.83;;;;;;;0.61;100.00;94728.16;5051335;28;20197;-57
2023/01/29 11:37:43;;;;;;;18.80;10.13;;;;;;;0.72;100.00;94731.00;5051153;28;20212;-59
2023/01/29 11:40:18;;;;;;;17.17;9.37;;;;;;;0.67;100.00;94727.88;5051331;28;20194;-59
2023/01/29 11:42:44;;;;;;;17.50;10.57;;;;;;;0.68;100.00;94716.19;5050948;28;20219;-57
2023/01/29 11:45:31;;;;;;;18.53;10.87;;;;;;;0.79;100.00;94724.00;5051155;28;20189;-58
2023/01/29 11:47:57;;;;;;;20.13;10.90;;;;;;;0.97;100.00;94705.63;5051639;28;20201;-57
2023/01/29 11:50:26;;;;;;;16.03;9.73;;;;;;;0.75;100.00;94715.81;5051246;28;20280;-58
2023/01/29 11:52:52;;;;;;;19.90;10.37;;;;;;;0.87;100.00;94711.16;5049629;28;20240;-56
2023/01/29 11:55:23;;;;;;;21.23;11.03;;;;;;;1.05;100.00;94730.31;5050732;28;20358;-54
2023/01/29 11:57:53;;;;;;;15.77;9.90;;;;;;;0.84;100.00;94734.63;5050543;28;20212;-59
2023/01/29 12:00:30;;;;;;;18.60;9.93;;;;;;;0.74;100.00;94724.22;5050555;28;20193;-56
2023/01/29 12:03:19;;;;;;;17.37;10.30;;;;;;;0.87;100.00;94714.44;5050339;28;20205;-55
2023/01/29 12:06:37;;;;;;;21.63;10.53;;;;;;;0.96;100.00;94729.03;5049907;28;20190;-55
2023/01/29 12:09:12;;;;;;;15.80;9.53;;;;;;;0.73;100.00;94715.09;5032856;28;20228;-56
2023/01/29 12:11:37;;;;;;;15.77;9.63;;;;;;;0.59;100.00;94701.59;5050512;28;20207;-57
2023/01/29 12:14:04;;;;;;;17.70;10.63;;;;;;;0.81;100.00;94710.53;5050286;28;20711;-58
2023/01/29 12:16:44;;;;;;;18.07;9.77;;;;;;;0.84;100.00;94712.09;5050401;28;20185;-57